createdAt,value
2022-08-03T00:00:16.502Z,76.6
2022-08-03T00:05:16.458Z,76.7
2022-08-03T00:10:16.430Z,76.7
2022-08-03T00:15:17.175Z,76.9
2022-08-03T00:20:16.500Z,76.9
2022-08-03T00:25:30.090Z,76.9
2022-08-03T00:30:16.876Z,76.4
2022-08-03T00:35:36.883Z,75.6
2022-08-03T00:40:16.485Z,75.1
2022-08-03T00:45:16.874Z,74.9
2022-08-03T00:50:16.558Z,74.7
2022-08-03T00:55:16.782Z,74.0
2022-08-03T01:00:16.587Z,73.3
2022-08-03T01:05:16.545Z,72.9
2022-08-03T01:10:16.610Z,72.7
2022-08-03T01:15:16.820Z,72.7
2022-08-03T01:20:16.517Z,72.7
2022-08-03T01:25:16.718Z,72.4
2022-08-03T01:30:16.954Z,72.6
2022-08-03T01:35:16.638Z,72.8
2022-08-03T01:40:16.690Z,73.2
2022-08-03T01:45:16.679Z,73.0
2022-08-03T01:50:16.708Z,72.9
2022-08-03T01:55:17.010Z,73.4
2022-08-03T02:00:17.000Z,73.7
2022-08-03T02:05:16.924Z,74.1
2022-08-03T02:10:16.570Z,74.3
2022-08-03T02:15:16.762Z,74.4
2022-08-03T02:20:16.665Z,74.4
2022-08-03T02:25:16.749Z,74.4
2022-08-03T02:30:16.686Z,74.7
2022-08-03T02:35:17.265Z,74.4
2022-08-03T02:40:16.888Z,74.3
2022-08-03T02:45:16.895Z,74.2
2022-08-03T02:50:17.003Z,73.9
2022-08-03T02:55:16.798Z,73.8
2022-08-03T03:00:27.373Z,73.7
2022-08-03T03:05:54.449Z,73.1
2022-08-03T03:10:16.733Z,72.9
2022-08-03T03:15:17.567Z,72.9
2022-08-03T03:20:29.705Z,73.2
2022-08-03T03:25:16.910Z,73.7
2022-08-03T03:30:16.933Z,74.1
2022-08-03T03:35:16.859Z,74.2
2022-08-03T03:40:17.027Z,74.4
2022-08-03T03:45:17.244Z,74.9
2022-08-03T03:50:17.153Z,75.1
2022-08-03T03:55:16.933Z,74.9
2022-08-03T04:00:18.233Z,74.6
2022-08-03T04:05:17.930Z,73.9
2022-08-03T04:10:17.909Z,73.5
2022-08-03T04:15:18.162Z,73.9
2022-08-03T04:20:18.104Z,74.0
2022-08-03T04:25:18.467Z,74.0
2022-08-03T04:30:18.218Z,74.0
2022-08-03T04:35:17.886Z,73.8
2022-08-03T04:40:17.950Z,74.0
2022-08-03T04:45:18.013Z,74.2
2022-08-03T04:50:21.403Z,73.7
2022-08-03T04:55:17.971Z,73.0
2022-08-03T05:00:18.040Z,72.8
2022-08-03T05:05:18.137Z,72.7
2022-08-03T05:10:18.241Z,72.7
2022-08-03T05:15:18.091Z,73.0
2022-08-03T05:20:18.801Z,72.8
2022-08-03T05:25:19.764Z,72.4
2022-08-03T05:30:29.867Z,72.7
2022-08-03T05:36:02.098Z,72.7
2022-08-03T05:40:18.007Z,72.9
2022-08-03T05:45:18.393Z,72.9
2022-08-03T05:50:18.094Z,72.7
2022-08-03T05:55:18.215Z,72.6
2022-08-03T06:00:18.332Z,72.4
2022-08-03T06:05:18.252Z,72.2
2022-08-03T06:10:35.635Z,71.8
2022-08-03T06:15:18.289Z,71.8
2022-08-03T06:20:16.318Z,71.6
2022-08-03T06:25:16.169Z,71.5
2022-08-03T06:30:20.869Z,71.2
2022-08-03T06:35:16.984Z,71.2
2022-08-03T06:40:16.156Z,71.3
2022-08-03T06:45:16.452Z,71.2
2022-08-03T06:50:18.459Z,71.3
2022-08-03T06:55:16.242Z,71.3
2022-08-03T07:00:16.550Z,71.4
2022-08-03T07:05:16.318Z,71.5
2022-08-03T07:10:16.376Z,71.5
2022-08-03T07:15:20.540Z,71.2
2022-08-03T07:20:16.387Z,71.2
2022-08-03T07:25:16.248Z,71.2
2022-08-03T07:30:16.368Z,71.1
2022-08-03T07:35:24.198Z,71.4
2022-08-03T07:40:17.660Z,71.5
2022-08-03T07:45:16.931Z,71.7
2022-08-03T07:50:16.285Z,71.4
2022-08-03T07:55:16.389Z,71.2
2022-08-03T08:00:16.616Z,71.1
2022-08-03T08:05:16.636Z,71.0
2022-08-03T08:10:16.353Z,71.0
2022-08-03T08:15:16.950Z,70.8
2022-08-03T08:20:16.400Z,70.7
2022-08-03T08:25:16.466Z,70.7
2022-08-03T08:30:19.237Z,70.6
2022-08-03T08:35:16.568Z,70.5
2022-08-03T08:40:17.496Z,70.4
2022-08-03T08:45:16.554Z,70.6
2022-08-03T08:50:27.862Z,70.6
2022-08-03T08:55:16.458Z,70.6
2022-08-03T09:00:16.631Z,70.7
2022-08-03T09:05:18.125Z,70.6
2022-08-03T09:10:16.585Z,70.5
2022-08-03T09:15:17.417Z,70.3
2022-08-03T09:20:16.466Z,70.3
2022-08-03T09:25:25.052Z,70.2
2022-08-03T09:30:34.788Z,70.4
2022-08-03T09:35:27.932Z,70.5
2022-08-03T09:40:16.557Z,70.3
2022-08-03T09:45:16.701Z,70.0
2022-08-03T09:50:16.777Z,69.7
2022-08-03T09:56:32.865Z,69.5
2022-08-03T09:56:35.630Z,69.5
2022-08-03T10:00:16.871Z,69.4
2022-08-03T10:05:19.415Z,69.5
2022-08-03T10:10:30.468Z,69.6
2022-08-03T10:16:22.022Z,69.5
2022-08-03T10:16:25.622Z,69.5
2022-08-03T10:20:17.486Z,69.6
2022-08-03T10:25:16.635Z,69.8
2022-08-03T10:30:16.742Z,69.9
2022-08-03T10:35:20.205Z,70.0
2022-08-03T10:40:33.448Z,70.2
2022-08-03T10:45:16.998Z,70.4
2022-08-03T10:50:16.711Z,70.5
2022-08-03T10:55:16.860Z,70.6
2022-08-03T11:00:17.079Z,70.7
2022-08-03T11:05:16.852Z,70.9
2022-08-03T11:10:16.778Z,71.0
2022-08-03T11:15:16.805Z,71.1
2022-08-03T11:20:16.890Z,71.3
2022-08-03T11:25:53.099Z,71.6
2022-08-03T11:30:16.872Z,71.8
2022-08-03T11:35:16.901Z,72.0
2022-08-03T11:40:16.867Z,72.4
2022-08-03T11:45:17.218Z,72.7
2022-08-03T11:50:16.762Z,72.9
2022-08-03T11:55:16.890Z,73.1
2022-08-03T12:00:16.931Z,73.3
2022-08-03T12:05:16.851Z,73.3
2022-08-03T12:10:16.954Z,73.7
2022-08-03T12:15:16.998Z,73.8
2022-08-03T12:20:17.046Z,73.9
2022-08-03T12:25:17.204Z,73.9
2022-08-03T12:30:17.212Z,74.1
2022-08-03T12:35:16.975Z,73.8
2022-08-03T12:40:20.556Z,73.4
2022-08-03T12:45:17.074Z,73.2
2022-08-03T12:50:16.923Z,73.6
2022-08-03T12:55:17.158Z,73.9
2022-08-03T13:00:21.391Z,74.1
2022-08-03T13:05:17.051Z,74.2
2022-08-03T13:10:17.670Z,74.0
2022-08-03T13:15:17.277Z,74.4
2022-08-03T13:20:17.147Z,74.7
2022-08-03T13:25:17.192Z,75.1
2022-08-03T13:30:24.974Z,75.6
2022-08-03T13:35:17.312Z,76.1
2022-08-03T13:40:17.094Z,76.3
2022-08-03T13:45:17.276Z,76.5
2022-08-03T13:50:17.082Z,76.8
2022-08-03T13:55:17.138Z,77.0
2022-08-03T14:00:27.704Z,77.0
2022-08-03T14:05:17.176Z,76.8
2022-08-03T14:10:17.947Z,76.8
2022-08-03T14:15:17.326Z,77.0
2022-08-03T14:20:36.587Z,77.7
2022-08-03T14:25:17.270Z,77.8
2022-08-03T14:30:17.394Z,78.2
2022-08-03T14:35:17.433Z,78.2
2022-08-03T14:40:17.238Z,78.1
2022-08-03T14:45:20.370Z,78.4
2022-08-03T14:50:34.674Z,78.6
2022-08-03T14:55:17.244Z,78.8
2022-08-03T15:00:17.343Z,79.1
2022-08-03T15:05:17.194Z,79.5
2022-08-03T15:10:17.378Z,79.4
2022-08-03T15:15:17.543Z,80.0
2022-08-03T15:20:23.336Z,80.0
2022-08-03T15:26:06.441Z,80.2
2022-08-03T15:26:30.292Z,80.2
2022-08-03T15:30:17.453Z,80.5
2022-08-03T15:35:17.435Z,80.7
2022-08-03T15:40:17.497Z,80.5
2022-08-03T15:45:20.356Z,80.4
2022-08-03T15:50:17.270Z,80.7
2022-08-03T15:55:17.436Z,80.7
2022-08-03T16:00:17.408Z,81.0
2022-08-03T16:05:17.328Z,81.0
2022-08-03T16:10:17.539Z,80.5
2022-08-03T16:15:17.694Z,78.6
2022-08-03T16:20:29.222Z,76.9
2022-08-03T16:25:17.510Z,77.1
2022-08-03T16:30:17.559Z,76.5
2022-08-03T16:35:19.567Z,75.3
2022-08-03T16:40:19.513Z,74.9
2022-08-03T16:45:17.551Z,75.4
2022-08-03T16:50:20.061Z,76.5
2022-08-03T16:55:42.814Z,77.4
2022-08-03T17:00:34.266Z,77.5
2022-08-03T17:05:17.582Z,76.8
2022-08-03T17:10:17.522Z,75.7
2022-08-03T17:15:17.598Z,75.8
2022-08-03T17:20:18.029Z,75.3
2022-08-03T17:25:21.960Z,75.8
2022-08-03T17:30:17.443Z,76.1
2022-08-03T17:35:17.612Z,76.1
2022-08-03T17:40:18.130Z,76.4
2022-08-03T17:45:17.903Z,76.7
2022-08-03T17:50:24.983Z,76.7
2022-08-03T17:55:55.831Z,76.7
2022-08-03T18:00:18.044Z,76.2
2022-08-03T18:05:17.809Z,75.2
2022-08-03T18:10:17.626Z,74.4
2022-08-03T18:15:21.359Z,74.1
2022-08-03T18:20:31.220Z,73.9
2022-08-03T18:25:17.641Z,73.1
2022-08-03T18:30:17.710Z,72.7
2022-08-03T18:35:17.811Z,72.6
2022-08-03T18:40:20.726Z,72.8
2022-08-03T18:45:57.475Z,72.6
2022-08-03T18:50:19.317Z,72.4
2022-08-03T18:55:20.727Z,71.9
2022-08-03T19:00:24.998Z,71.7
2022-08-03T19:05:17.921Z,71.6
2022-08-03T19:10:19.064Z,71.7
2022-08-03T19:15:18.093Z,71.6
2022-08-03T19:20:17.732Z,71.4
2022-08-03T19:25:17.807Z,71.6
2022-08-03T19:30:26.087Z,72.1
2022-08-03T19:35:18.995Z,72.3
2022-08-03T19:40:19.957Z,72.1
2022-08-03T19:45:18.036Z,72.3
2022-08-03T19:50:17.954Z,72.7
2022-08-03T19:55:17.891Z,72.8
2022-08-03T20:00:18.402Z,73.1
2022-08-03T20:05:17.839Z,73.4
2022-08-03T20:10:17.858Z,73.2
2022-08-03T20:15:31.134Z,73.2
2022-08-03T20:20:21.115Z,72.9
2022-08-03T20:25:20.993Z,73.0
2022-08-03T20:30:17.961Z,72.6
2022-08-03T20:35:17.949Z,71.9
2022-08-03T20:40:17.904Z,71.5
2022-08-03T20:46:01.045Z,71.5
2022-08-03T20:46:29.672Z,71.5
2022-08-03T20:50:18.018Z,71.1
2022-08-03T20:55:18.037Z,70.8
2022-08-03T21:00:17.963Z,70.8
2022-08-03T21:05:18.046Z,70.9
2022-08-03T21:10:17.990Z,70.8
2022-08-03T21:16:02.933Z,70.6
2022-08-03T21:20:18.001Z,70.5
2022-08-03T21:25:18.085Z,70.4
2022-08-03T21:30:18.344Z,70.5
2022-08-03T21:35:18.054Z,70.6
2022-08-03T21:40:17.972Z,70.5
2022-08-03T21:45:18.998Z,70.5
2022-08-03T21:50:17.970Z,70.4
2022-08-03T21:55:18.459Z,70.4
2022-08-03T22:00:18.511Z,70.2
2022-08-03T22:05:18.290Z,70.3
2022-08-03T22:10:18.090Z,70.2
2022-08-03T22:15:18.186Z,70.1
2022-08-03T22:20:18.022Z,70.1
2022-08-03T22:25:18.212Z,69.9
2022-08-03T22:30:18.225Z,69.8
2022-08-03T22:35:18.750Z,69.3
2022-08-03T22:40:18.182Z,69.2
2022-08-03T22:46:07.467Z,69.3
2022-08-03T22:50:31.235Z,69.2
2022-08-03T22:55:24.714Z,69.4
2022-08-03T23:00:16.521Z,69.4
2022-08-03T23:05:59.500Z,69.3
2022-08-03T23:10:16.157Z,69.3
2022-08-03T23:15:16.556Z,69.2
2022-08-03T23:20:16.159Z,69.2
2022-08-03T23:25:16.199Z,69.1
2022-08-03T23:30:16.324Z,68.9
2022-08-03T23:35:16.462Z,68.9
2022-08-03T23:40:16.182Z,68.9
2022-08-03T23:45:16.945Z,69.0
2022-08-03T23:50:16.259Z,68.9
2022-08-03T23:55:16.393Z,68.9
